Terminal Aerodrome Forecast
Issued by NWS

Home | Current Version | Previous Version | Text Only | Print | Product List | Glossary On
Versions: 1 2 3 4 5 6 7 8 9 10 11 12 13 14 15 16
000
FTUS43 KIND 222300
TAFLAF
TAF
KLAF 222320Z 2300/2324 21008KT P6SM VCSH OVC035
     FM231000 19007KT P6SM VCSH OVC035
     FM231600 15010KT 4SM -RA BR OVC018
     FM232100 11012KT 3SM -RA BR OVC007
      AMD LTD TO CLD VIS AND WIND 2302/2314=

USA.gov is the U.S. government's official web portal to all federal, state and local government web resources and services.